Terminal Aerodrome Forecast
Issued by NWS

Current Version | Previous Version | Graphics & Text | Print | Product List | Glossary On
Versions: 1 2 3 4 5 6 7 8 9 10 11 12 13 14
000
FTUS41 KILN 291700
TAFLCK
TAF
KLCK 291730Z 2918/3018 31008KT P6SM BKN050
     FM300100 26004KT P6SM SCT050
      TEMPO 3009/3013 4SM BR
     FM301500 27008KT P6SM BKN040=

USA.gov is the U.S. government's official web portal to all federal, state and local government web resources and services.